Latest Weather Observations for Onslow Airport

IDW60801

Issued at 11:34 am WST Wednesday 22 February 2017 (issued every 30 minutes, with the page automatically refreshed every 10 minutes)

About weather observations | Map of weather stations | Latest weather observations for WA | Other Formats
Station Details ID: 005017 Name: ONSLOW AIRPORT Lat: -21.67 Lon: 115.11 Height: 10.5 m
Data from the previous 72 hours. | See also: Recent months at Onslow Airport
Date/Time
WST
Temp
°C
App
Temp
°C
Dew
Point
°C
Rel
Hum
%
Delta-T
°C
Wind Press
QNH
hPa
Press
MSL
hPa
Rain since
9am
mm
Dir  Spd
km/h
Gust
km/h
Spd
kts
Gust
kts
22/11:30am 36.4 35.2 16.0 29 12.9 SSE 17 22 9 12 1011.8 1011.7 0.0
22/11:00am 36.0 35.0 16.7 31 12.4 SSE 17 22 9 12 1012.2 1012.1 0.0
22/10:30am 35.3 33.7 16.1 32 12.2 SSE 19 24 10 13 1012.4 1012.3 0.0
22/10:00am 34.4 32.9 16.3 34 11.5 SSE 19 24 10 13 1012.7 1012.6 0.0
22/09:30am 33.5 32.4 17.2 37 10.4 SSE 19 26 10 14 1013.0 1012.9 0.0
22/09:00am 32.4 30.5 16.7 39 9.9 SSE 22 28 12 15 1013.1 1013.0 0.0
22/08:30am 30.6 29.1 17.7 46 8.2 SSE 22 28 12 15 1013.0 1012.9 0.0
22/08:00am 29.4 28.4 17.9 50 7.3 SSE 20 28 11 15 1012.9 1012.8 0.0
22/07:30am 28.2 27.6 18.9 57 6.0 S 20 26 11 14 1012.5 1012.4 0.0
22/07:00am 26.3 26.0 19.2 65 4.6 S 19 24 10 13 1012.2 1012.1 0.0
22/06:30am 25.8 25.3 19.0 66 4.4 S 20 24 11 13 1011.9 1011.8 0.0
22/06:00am 25.7 25.3 19.3 67 4.1 S 20 28 11 15 1011.6 1011.5 0.0
22/05:30am 25.9 25.8 19.5 68 4.1 S 19 22 10 12 1011.5 1011.4 0.0
22/05:00am 26.2 25.8 19.3 65 4.4 S 20 26 11 14 1011.3 1011.2 0.0
22/04:30am 26.7 26.5 19.8 66 4.5 SSW 20 28 11 15 1011.1 1011.0 0.0
22/04:00am 27.1 27.0 20.0 65 4.6 SSW 20 28 11 15 1010.8 1010.7 0.0
22/03:30am 27.6 27.1 19.9 63 5.0 SSW 22 26 12 14 1010.6 1010.5 0.0
22/03:00am 28.0 27.4 19.8 61 5.4 SSW 22 28 12 15 1010.4 1010.3 0.0
22/02:30am 28.4 27.5 19.9 60 5.6 SSW 24 30 13 16 1010.4 1010.3 0.0
22/02:00am 28.8 28.3 20.0 59 5.8 SSW 22 32 12 17 1010.6 1010.5 0.0
22/01:30am 29.1 28.6 20.0 58 6.0 SSW 22 28 12 15 1010.7 1010.6 0.0
22/01:00am 29.5 29.1 20.1 57 6.2 SSW 22 30 12 16 1010.7 1010.6 0.0
22/12:30am 29.8 29.8 20.1 56 6.4 SSW 20 28 11 15 1010.8 1010.7 0.0
22/12:00am 30.4 29.7 20.3 54 6.7 SSW 24 32 13 17 1010.9 1010.8 0.0
 
Date/Time
WST
Temp
°C
App
Temp
°C
Dew
Point
°C
Rel
Hum
%
Delta-T
°C
Wind Press
QNH
hPa
Press
MSL
hPa
Rain since
9am
mm
Dir  Spd
km/h
Gust
km/h
Spd
kts
Gust
kts
21/11:30pm 30.6 30.4 20.5 54 6.7 SSW 22 28 12 15 1011.0 1010.9 0.0
21/11:00pm 31.3 30.7 20.6 53 7.1 SSW 24 32 13 17 1011.0 1010.9 0.0
21/10:30pm 31.8 30.4 20.4 51 7.6 SSW 28 33 15 18 1011.1 1011.0 0.0
21/10:00pm 32.3 30.9 20.5 49 7.9 SSW 28 35 15 19 1011.1 1011.0 0.0
21/09:30pm 32.8 31.7 21.0 50 7.9 SSW 28 39 15 21 1010.8 1010.7 0.0
21/09:00pm 33.3 32.8 20.8 48 8.4 SSW 24 32 13 17 1010.5 1010.4 0.0
21/08:30pm 32.9 34.5 23.2 56 6.7 SW 20 26 11 14 1010.1 1010.0 0.0
21/08:00pm 33.4 34.5 23.1 54 7.1 SW 22 26 12 14 1009.8 1009.7 0.0
21/07:30pm 34.6 35.2 21.3 46 9.0 SSW 20 26 11 14 1009.4 1009.3 0.0
21/07:00pm 34.5 36.1 21.5 46 8.8 WSW 15 20 8 11 1009.0 1008.9 0.0
21/06:30pm 34.0 36.6 24.6 58 6.6 W 19 26 10 14 1008.5 1008.4 0.0
21/06:00pm 33.3 34.1 24.5 60 6.2 WNW 28 35 15 19 1008.3 1008.2 0.0
21/05:30pm 33.7 34.0 24.3 58 6.6 WNW 30 43 16 23 1008.0 1007.9 0.0
21/05:20pm 33.3 34.1 24.5 60 6.2 WNW 28 41 15 22 1007.9 1007.8 0.0
21/05:00pm 35.8 36.7 20.1 40 10.5 WSW 15 24 8 13 1007.8 1007.7 0.0
21/04:30pm 37.2 37.7 19.2 35 12.0 SSW 15 22 8 12 1007.9 1007.8 0.0
21/04:00pm 38.6 38.4 18.4 30 13.3 SSW 17 26 9 14 1007.9 1007.8 0.0
21/03:30pm 38.8 38.1 18.6 30 13.4 SSW 20 28 11 15 1008.1 1008.0 0.0
21/03:00pm 38.9 38.9 19.7 32 12.9 SW 19 26 10 14 1008.2 1008.1 0.0
21/02:30pm 38.8 39.3 20.1 33 12.6 SSW 17 28 9 15 1008.5 1008.4 0.0
21/02:00pm 38.5 38.3 19.8 33 12.6 SSW 20 26 11 14 1008.7 1008.6 0.0
21/01:30pm 38.2 38.5 19.6 34 12.4 S 17 24 9 13 1009.0 1008.9 0.0
21/01:00pm 37.7 38.5 19.1 33 12.4 S 13 19 7 10 1009.5 1009.4 0.0
21/12:30pm 37.4 38.3 19.3 34 12.0 S 13 17 7 9 1009.9 1009.8 0.0
21/12:00pm 37.0 37.8 19.9 36 11.5 SSE 15 22 8 12 1010.2 1010.1 0.0
21/11:30am 36.9 37.5 21.1 40 10.7 S 19 26 10 14 1010.4 1010.3 0.0
21/11:00am 36.6 37.7 21.2 40 10.5 SE 17 24 9 13 1010.7 1010.6 0.0
21/10:30am 35.7 35.6 20.0 39 10.5 SE 20 26 11 14 1011.1 1011.0 0.0
21/10:00am 34.5 35.7 22.2 48 8.4 S 19 24 10 13 1011.4 1011.3 0.0
21/09:30am 34.1 35.9 23.2 53 7.6 S 19 22 10 12 1011.5 1011.4 0.0
21/09:00am 32.6 34.1 22.7 56 6.8 S 19 22 10 12 1011.4 1011.3 0.0
21/08:30am 31.7 34.2 23.8 63 5.5 S 17 22 9 12 1011.3 1011.2 0.0
21/08:00am 30.2 32.5 23.4 67 4.7 S 17 20 9 11 1011.1 1011.0 0.0
21/07:30am 29.2 31.6 23.6 72 3.9 S 17 24 9 13 1010.9 1010.8 0.0
21/07:00am 28.2 30.4 24.0 78 2.9 SSW 19 24 10 13 1010.7 1010.6 0.0
21/06:30am 27.5 29.6 23.7 80 2.6 SSW 19 24 10 13 1010.3 1010.2 0.0
21/06:00am 27.4 30.3 23.8 81 2.5 SSW 15 19 8 10 1010.0 1009.9 0.0
21/05:30am 27.3 30.0 23.5 80 2.6 SSW 15 19 8 10 1009.8 1009.7 0.0
21/05:00am 27.5 30.6 23.5 79 2.7 SSW 13 17 7 9 1009.7 1009.6 0.0
21/04:30am 27.5 30.0 23.1 77 3.0 SSW 15 17 8 9 1009.6 1009.5 0.0
21/04:00am 27.6 30.4 23.0 76 3.1 SSW 13 15 7 8 1009.4 1009.3 0.0
21/03:30am 27.9 30.2 22.8 74 3.5 SSW 15 19 8 10 1009.4 1009.3 0.0
21/03:00am 28.1 29.9 22.6 72 3.7 SSW 17 20 9 11 1009.5 1009.4 0.0
21/02:30am 28.0 30.9 23.2 75 3.3 SW 13 17 7 9 1009.5 1009.4 0.0
21/02:00am 28.2 31.1 23.1 74 3.5 SW 13 17 7 9 1009.7 1009.6 0.0
21/01:30am 28.6 31.8 23.1 72 3.8 SW 11 15 6 8 1009.8 1009.7 0.0
21/01:00am 28.4 32.5 23.3 74 3.5 WSW 7 11 4 6 1010.0 1009.9 0.0
21/12:30am 28.4 31.6 23.1 73 3.6 SW 11 13 6 7 1009.9 1009.8 0.0
21/12:00am 28.9 32.1 23.1 71 4.0 WSW 11 13 6 7 1010.0 1009.9 0.0
 
Date/Time
WST
Temp
°C
App
Temp
°C
Dew
Point
°C
Rel
Hum
%
Delta-T
°C
Wind Press
QNH
hPa
Press
MSL
hPa
Rain since
9am
mm
Dir  Spd
km/h
Gust
km/h
Spd
kts
Gust
kts
20/11:30pm 28.5 32.3 22.7 71 3.9 SSW 7 11 4 6 1009.9 1009.8 0.0
20/11:00pm 28.5 31.7 22.3 69 4.2 WSW 9 9 5 5 1009.9 1009.8 0.0
20/10:30pm 28.9 31.6 22.2 67 4.5 WSW 11 13 6 7 1010.0 1009.9 0.0
20/10:00pm 29.0 31.0 21.5 64 5.0 WSW 13 17 7 9 1010.2 1010.1 0.0
20/09:30pm 29.1 31.0 22.1 66 4.7 W 15 17 8 9 1010.2 1010.1 0.0
20/09:00pm 28.7 30.8 22.4 68 4.3 WNW 15 17 8 9 1010.0 1009.9 0.0
20/08:30pm 28.9 31.0 21.7 65 4.8 W 13 17 7 9 1010.0 1009.9 0.0
20/08:00pm 29.8 31.3 20.6 57 6.1 WSW 13 15 7 8 1009.5 1009.4 0.0
20/07:30pm 31.2 32.4 22.5 60 5.9 WSW 20 30 11 16 1009.3 1009.2 0.0
20/07:00pm 30.8 34.4 25.6 74 3.7 W 17 20 9 11 1008.9 1008.8 0.0
20/06:30pm 31.6 34.4 25.2 69 4.5 W 20 28 11 15 1008.4 1008.3 0.0
20/06:00pm 32.5 34.4 25.6 67 4.9 W 26 32 14 17 1008.0 1007.9 0.0
20/05:30pm 32.3 34.3 25.1 65 5.1 W 24 32 13 17 1007.6 1007.5 0.0
20/05:00pm 33.4 34.5 23.1 54 7.1 WNW 22 28 12 15 1007.5 1007.4 0.0
20/04:30pm 33.9 34.8 22.7 52 7.7 WNW 22 28 12 15 1007.4 1007.3 0.0
20/04:00pm 34.8 36.6 23.5 52 7.9 WNW 20 24 11 13 1007.5 1007.4 0.0
20/03:30pm 35.6 35.5 20.7 41 10.0 WNW 22 26 12 14 1007.6 1007.5 0.0
20/03:00pm 35.9 36.3 21.7 43 9.7 NW 22 28 12 15 1007.6 1007.5 0.0
20/02:30pm 35.6 37.2 23.9 51 8.2 WNW 22 28 12 15 1007.8 1007.7 0.0
20/02:00pm 36.0 36.7 22.2 45 9.5 WNW 22 26 12 14 1007.9 1007.8 0.0
20/01:30pm 36.7 37.5 21.7 42 10.3 NW 20 24 11 13 1008.1 1008.0 0.0
20/01:00pm 36.9 36.5 19.4 36 11.7 NNW 20 28 11 15 1008.5 1008.4 0.0
20/12:30pm 37.1 39.7 20.4 37 11.3 E 7 13 4 7 1008.9 1008.8 0.0
20/12:00pm 36.6 38.4 20.4 38 10.9 ENE 11 17 6 9 1009.2 1009.1 0.0
20/11:30am 36.3 38.6 21.3 41 10.2 E 11 17 6 9 1009.5 1009.4 0.0
20/11:00am 35.9 37.0 21.3 42 9.9 ESE 17 24 9 13 1009.9 1009.8 0.0
20/10:30am 35.0 35.9 22.0 46 8.9 SE 20 24 11 13 1010.2 1010.1 0.0
20/10:00am 34.1 34.6 21.9 49 8.3 ESE 22 30 12 16 1010.5 1010.4 0.0
20/09:30am 33.3 33.7 21.8 51 7.8 ESE 22 30 12 16 1010.6 1010.5 0.0
20/09:00am 32.4 32.7 22.2 55 7.0 SE 24 30 13 16 1010.7 1010.6 0.0
20/08:30am 31.0 30.4 21.2 56 6.6 SE 26 32 14 17 1010.7 1010.6 0.0
20/08:00am 29.8 31.1 22.3 64 5.1 SE 19 26 10 14 1010.8 1010.7 0.0
20/07:30am 28.7 30.2 22.0 67 4.5 SE 17 20 9 11 1010.9 1010.8 0.0
20/07:00am 27.4 28.8 21.9 72 3.7 SE 17 20 9 11 1010.7 1010.6 0.0
20/06:30am 26.7 27.4 21.5 73 3.5 SE 20 24 11 13 1010.6 1010.5 0.0
20/06:00am 26.9 25.9 21.2 71 3.8 SE 28 35 15 19 1010.2 1010.1 0.0
20/05:30am 26.8 27.1 21.6 73 3.5 SE 22 28 12 15 1010.0 1009.9 0.0
20/05:00am 26.9 27.8 21.6 72 3.5 SE 19 26 10 14 1009.9 1009.8 0.0
20/04:30am 27.0 28.0 21.7 73 3.5 SE 19 24 10 13 1009.7 1009.6 0.0
20/04:00am 27.2 28.4 22.2 74 3.4 SE 19 24 10 13 1009.7 1009.6 0.0
20/03:30am 27.0 29.8 23.0 79 2.7 SSE 13 17 7 9 1009.8 1009.7 0.0
20/03:00am 27.3 29.7 22.9 77 3.0 SSE 15 19 8 10 1009.9 1009.8 0.0
20/02:30am 27.7 29.7 22.9 75 3.3 S 17 24 9 13 1010.1 1010.0 0.0
20/02:00am 28.0 29.9 22.7 73 3.6 S 17 22 9 12 1010.4 1010.3 0.0
20/01:30am 28.6 33.0 26.2 87 1.7 SW 15 19 8 10 1010.3 1010.2 0.0
20/01:00am 28.0 32.9 25.8 88 1.6 W 11 15 6 8 1010.4 1010.3 0.0
20/12:30am 28.1 33.6 26.1 89 1.4 W 9 11 5 6 1010.4 1010.3 0.0
20/12:00am 28.0 33.0 26.0 89 1.4 W 11 13 6 7 1010.8 1010.7 0.0
 
Date/Time
WST
Temp
°C
App
Temp
°C
Dew
Point
°C
Rel
Hum
%
Delta-T
°C
Wind Press
QNH
hPa
Press
MSL
hPa
Rain since
9am
mm
Dir  Spd
km/h
Gust
km/h
Spd
kts
Gust
kts
19/11:30pm 28.5 33.6 26.1 87 1.7 WSW 11 15 6 8 1011.3 1011.2 0.0
19/11:00pm 28.7 33.5 26.3 87 1.7 SW 13 17 7 9 1011.6 1011.5 0.0
19/10:30pm 28.5 33.8 25.9 86 1.8 WSW 9 13 5 7 1011.3 1011.2 0.0
19/10:00pm 28.8 34.2 26.0 85 2.0 SW 9 13 5 7 1011.1 1011.0 0.0
19/09:30pm 28.9 32.7 25.3 81 2.5 W 15 19 8 10 1010.4 1010.3 0.0
19/09:00pm 29.1 33.4 25.5 81 2.5 W 13 15 7 8 1010.2 1010.1 0.0
19/08:30pm 29.2 33.1 26.0 83 2.3 WNW 17 19 9 10 1009.8 1009.7 0.0
19/08:00pm 29.3 33.2 26.1 83 2.3 WNW 17 20 9 11 1009.8 1009.7 0.0
19/07:30pm 29.5 32.9 25.9 81 2.6 WNW 19 22 10 12 1009.6 1009.5 0.0
19/07:00pm 29.9 33.1 25.9 79 2.8 WNW 20 26 11 14 1009.2 1009.1 0.0
19/06:30pm 30.7 33.9 25.5 74 3.7 WNW 19 24 10 13 1009.0 1008.9 0.0
19/06:00pm 31.0 34.5 25.4 72 4.0 W 17 20 9 11 1009.1 1009.0 0.0
19/05:30pm 31.2 33.8 25.5 71 4.0 WNW 22 30 12 16 1008.8 1008.7 0.0
19/05:00pm 31.6 33.2 25.2 69 4.5 WNW 26 32 14 17 1008.4 1008.3 0.0
19/04:30pm 32.2 34.3 25.3 67 4.9 WNW 24 30 13 16 1008.7 1008.6 0.0
19/04:00pm 32.1 34.1 25.7 69 4.6 WNW 26 30 14 16 1008.7 1008.6 0.0
19/03:30pm 32.3 34.1 25.4 67 4.9 WNW 26 32 14 17 1008.9 1008.8 0.0
19/03:00pm 32.1 33.9 25.4 67 4.8 WNW 26 32 14 17 1009.3 1009.2 0.0
19/02:30pm 33.3 35.9 26.1 66 5.2 WNW 24 30 13 16 1009.5 1009.4 0.0
19/02:00pm 33.9 36.6 25.0 59 6.3 NW 20 26 11 14 1009.6 1009.5 0.0
19/01:30pm 34.3 37.2 25.4 60 6.3 NW 20 24 11 13 1009.9 1009.8 0.0
19/01:00pm 34.1 37.1 25.2 59 6.3 NNW 19 24 10 13 1010.1 1010.0 0.0
19/12:30pm 35.2 40.2 25.4 57 7.0 NNW 9 19 5 10 1010.4 1010.3 0.0
19/12:00pm 35.1 38.3 23.1 49 8.3 E 11 19 6 10 1010.6 1010.5 0.0

Other Formats:

Comma delimited format used in spreadsheet applications
http://www.bom.gov.au/fwo/IDW60801/IDW60801.95305.axf

JavaScript Object Notation format (JSON) in row-major order
http://www.bom.gov.au/fwo/IDW60801/IDW60801.95305.json